Time;durP1;ratioP1;P1;durP2;ratioP2;P2;SDS_P1;SDS_P2;PMS_P1;PMS_P2;Temp;Humidity;BMP_temperature;BMP_pressure;BME280_temperature;BME280_humidity;BME280_pressure;Samples;Min_cycle;Max_cycle;Signal;HPM_P1;HPM_P2
2023/06/12 00:00:07;;;;;;;6.60;6.10;;;;;;;15.07;100.00;96920.72;4985399;28;20240;-68
2023/06/12 00:02:37;;;;;;;6.07;5.77;;;;;;;15.03;100.00;96923.03;4935196;28;22596;-65
2023/06/12 00:05:05;;;;;;;6.47;6.03;;;;;;;14.99;100.00;96924.50;4993219;28;20221;-64
2023/06/12 00:07:35;;;;;;;7.17;6.57;;;;;;;15.00;100.00;96919.97;4985669;28;20205;-64
2023/06/12 00:10:03;;;;;;;6.27;5.87;;;;;;;14.95;100.00;96925.94;4987340;28;20508;-65
2023/06/12 00:12:31;;;;;;;7.10;6.60;;;;;;;14.90;100.00;96923.13;4927398;28;20375;-60
2023/06/12 00:14:59;;;;;;;7.40;6.80;;;;;;;14.79;100.00;96913.19;4990155;28;20323;-65
2023/06/12 00:17:27;;;;;;;6.97;6.30;;;;;;;14.60;100.00;96897.91;4949878;28;20205;-65
2023/06/12 00:19:56;;;;;;;6.30;5.90;;;;;;;14.69;100.00;96917.13;4978944;28;20209;-66
2023/06/12 00:22:24;;;;;;;6.03;5.63;;;;;;;14.66;100.00;96922.88;4985001;28;20311;-66
2023/06/12 00:24:52;;;;;;;7.50;6.80;;;;;;;14.63;100.00;96918.00;4984736;28;20302;-67
2023/06/12 00:27:19;;;;;;;7.27;6.77;;;;;;;14.61;100.00;96928.06;4951754;28;20387;-66
2023/06/12 00:29:47;;;;;;;7.33;6.83;;;;;;;14.57;100.00;96921.50;4971672;28;20362;-67
2023/06/12 00:32:15;;;;;;;7.00;6.50;;;;;;;14.55;100.00;96932.38;4986792;28;20231;-65
2023/06/12 00:34:43;;;;;;;6.83;6.23;;;;;;;14.39;100.00;96931.06;4940995;28;20356;-65
2023/06/12 00:37:12;;;;;;;7.30;6.70;;;;;;;14.27;100.00;96927.44;4991039;28;20549;-67
2023/06/12 00:39:40;;;;;;;7.83;7.23;;;;;;;14.21;100.00;96925.66;4987988;28;20197;-65
2023/06/12 00:42:08;;;;;;;7.57;6.97;;;;;;;13.98;100.00;96918.97;4983299;28;20306;-65
2023/06/12 00:44:36;;;;;;;9.43;7.40;;;;;;;13.93;100.00;96921.47;4925660;28;20582;-67
2023/06/12 00:47:04;;;;;;;7.57;6.97;;;;;;;13.89;100.00;96929.88;4985003;28;20304;-67
2023/06/12 00:49:32;;;;;;;7.53;6.93;;;;;;;13.80;100.00;96922.34;4940858;28;20843;-62
2023/06/12 00:52:00;;;;;;;8.40;7.80;;;;;;;13.68;100.00;96922.16;4988927;28;20225;-66
2023/06/12 00:54:29;;;;;;;7.33;6.83;;;;;;;13.67;100.00;96917.88;4979854;28;20705;-65
2023/06/12 00:56:57;;;;;;;7.63;7.13;;;;;;;13.63;100.00;96920.13;4983735;28;20334;-64
2023/06/12 00:59:25;;;;;;;7.60;7.10;;;;;;;13.58;100.00;96917.28;4939077;28;20307;-65
2023/06/12 01:01:53;;;;;;;8.33;7.73;;;;;;;13.50;100.00;96918.34;4978236;28;21755;-67
2023/06/12 01:04:21;;;;;;;8.23;7.53;;;;;;;13.32;100.00;96901.16;4962587;28;20236;-64
2023/06/12 01:06:56;;;;;;;8.07;7.50;;;;;;;13.42;100.00;96921.19;4967128;28;20318;-66
2023/06/12 01:09:30;;;;;;;8.53;7.93;;;;;;;13.32;100.00;96913.66;4982211;28;20796;-65
2023/06/12 01:11:58;;;;;;;8.03;7.43;;;;;;;13.26;100.00;96917.94;4987365;28;20215;-67
2023/06/12 01:14:26;;;;;;;8.37;7.77;;;;;;;13.20;100.00;96918.78;4938777;28;20235;-65
2023/06/12 01:16:58;;;;;;;7.93;7.33;;;;;;;13.12;100.00;96916.34;4979999;28;20224;-66
2023/06/12 01:19:26;;;;;;;7.87;7.13;;;;;;;13.10;100.00;96915.75;4987883;28;20288;-66
2023/06/12 01:21:59;;;;;;;8.67;8.07;;;;;;;13.12;100.00;96921.66;4938848;28;21275;-65
2023/06/12 01:24:45;;;;;;;8.63;7.97;;;;;;;12.93;100.00;96907.38;4984407;28;20255;-67
2023/06/12 01:27:41;;;;;;;8.57;7.87;;;;;;;12.90;100.00;96921.88;4988204;28;20352;-66
2023/06/12 01:30:37;;;;;;;8.47;7.87;;;;;;;12.90;100.00;96927.19;4921928;28;20258;-65
2023/06/12 01:33:08;;;;;;;9.10;8.37;;;;;;;12.87;100.00;96924.94;4990206;28;20237;-67
2023/06/12 01:35:37;;;;;;;9.70;9.00;;;;;;;12.86;100.00;96923.31;4988333;28;20240;-65
2023/06/12 01:38:08;;;;;;;8.03;7.53;;;;;;;12.84;100.00;96936.81;4944524;28;20217;-65
2023/06/12 01:40:38;;;;;;;8.40;7.83;;;;;;;12.75;100.00;96927.41;4980498;28;20233;-67
2023/06/12 01:43:06;;;;;;;8.83;8.23;;;;;;;12.66;100.00;96928.63;4982791;28;20296;-65
2023/06/12 01:45:34;;;;;;;8.80;8.10;;;;;;;12.67;100.00;96928.41;4970120;28;20998;-65
2023/06/12 01:48:02;;;;;;;8.23;7.63;;;;;;;12.57;100.00;96930.66;4959863;28;20209;-66
2023/06/12 01:50:31;;;;;;;8.50;7.70;;;;;;;12.58;100.00;96924.31;4989189;28;20197;-65
2023/06/12 01:52:59;;;;;;;8.03;7.50;;;;;;;12.62;100.00;96932.72;4937264;28;20700;-66
2023/06/12 01:55:27;;;;;;;8.90;8.23;;;;;;;12.58;100.00;96921.66;4990390;28;20217;-64
2023/06/12 01:57:55;;;;;;;10.03;9.03;;;;;;;12.59;100.00;96931.28;4987168;28;20268;-66
2023/06/12 02:00:22;;;;;;;9.17;8.57;;;;;;;12.52;100.00;96928.63;4963091;28;20918;-66
2023/06/12 02:02:53;;;;;;;8.63;7.97;;;;;;;12.53;100.00;96924.94;4957742;28;20267;-67
2023/06/12 02:05:21;;;;;;;8.70;8.10;;;;;;;12.41;100.00;96913.25;4991392;28;20377;-65
2023/06/12 02:07:50;;;;;;;9.13;8.53;;;;;;;12.49;100.00;96929.00;4937832;28;20214;-66
2023/06/12 02:10:18;;;;;;;9.27;8.57;;;;;;;12.40;100.00;96920.44;4990655;28;20647;-66
2023/06/12 02:12:46;;;;;;;9.43;8.73;;;;;;;12.39;100.00;96924.09;4989899;28;20229;-65
2023/06/12 02:15:13;;;;;;;9.27;8.47;;;;;;;12.32;100.00;96911.81;4968066;28;23362;-66
2023/06/12 02:17:41;;;;;;;9.27;8.57;;;;;;;12.36;100.00;96929.00;4952122;28;20697;-65
2023/06/12 02:20:09;;;;;;;9.50;8.80;;;;;;;12.32;100.00;96933.91;4965707;28;20848;-66
2023/06/12 02:22:38;;;;;;;9.83;9.03;;;;;;;12.36;100.00;96939.63;4974975;28;20220;-66
2023/06/12 02:25:08;;;;;;;9.53;8.83;;;;;;;12.37;100.00;96936.78;4959239;28;20260;-67
2023/06/12 02:27:35;;;;;;;9.57;8.87;;;;;;;12.29;100.00;96942.25;4962630;28;20949;-66
2023/06/12 02:30:04;;;;;;;10.47;9.47;;;;;;;12.30;100.00;96938.56;4987865;28;20209;-62
2023/06/12 02:32:33;;;;;;;9.00;8.40;;;;;;;12.26;100.00;96930.22;4964157;28;20705;-65
2023/06/12 02:35:02;;;;;;;11.30;9.53;;;;;;;12.25;100.00;96936.53;4965523;28;20291;-64
2023/06/12 02:37:31;;;;;;;10.43;9.60;;;;;;;12.24;100.00;96942.03;4984298;28;20232;-64
2023/06/12 02:39:59;;;;;;;9.80;9.00;;;;;;;12.19;100.00;96939.16;4942275;28;20268;-66
2023/06/12 02:42:28;;;;;;;10.17;9.27;;;;;;;12.19;100.00;96940.00;4984964;28;20554;-65
2023/06/12 02:44:56;;;;;;;10.57;9.70;;;;;;;12.16;100.00;96938.56;4983594;28;20337;-66
2023/06/12 02:47:23;;;;;;;10.37;9.57;;;;;;;12.10;100.00;96928.72;4970038;28;20304;-65
2023/06/12 02:49:51;;;;;;;10.17;9.27;;;;;;;12.09;100.00;96932.41;4956839;28;20446;-65
2023/06/12 02:52:18;;;;;;;10.77;9.97;;;;;;;12.04;100.00;96940.16;4986466;28;20826;-67
2023/06/12 02:54:46;;;;;;;10.87;9.87;;;;;;;11.90;100.00;96927.81;4954477;28;20311;-66
2023/06/12 02:57:15;;;;;;;10.63;9.63;;;;;;;11.96;100.00;96941.09;4960036;28;20263;-66
2023/06/12 02:59:45;;;;;;;11.20;10.40;;;;;;;11.93;100.00;96933.53;4984871;28;20218;-64
2023/06/12 03:02:12;;;;;;;10.10;9.37;;;;;;;11.83;100.00;96936.56;4961693;28;20240;-65
2023/06/12 03:04:40;;;;;;;10.40;9.70;;;;;;;11.80;100.00;96941.47;4955220;28;21208;-66
2023/06/12 03:07:07;;;;;;;10.67;9.87;;;;;;;11.82;100.00;96936.78;4985543;28;20823;-65
2023/06/12 03:09:35;;;;;;;10.43;9.63;;;;;;;11.85;100.00;96944.34;4987558;28;20236;-64
2023/06/12 03:12:02;;;;;;;10.50;9.33;;;;;;;11.86;100.00;96938.81;4951422;28;20253;-65
2023/06/12 03:14:30;;;;;;;10.70;10.00;;;;;;;11.93;100.00;96938.03;4983923;28;20397;-65
2023/06/12 03:17:01;;;;;;;10.57;9.83;;;;;;;11.93;100.00;96930.88;4977401;28;20239;-65
2023/06/12 03:19:29;;;;;;;10.43;9.53;;;;;;;11.85;100.00;96934.53;4981602;28;20283;-66
2023/06/12 03:21:57;;;;;;;10.97;10.03;;;;;;;11.85;100.00;96939.03;4953995;28;20209;-65
2023/06/12 03:24:26;;;;;;;11.03;10.20;;;;;;;11.85;100.00;96945.16;4987504;28;20437;-62
2023/06/12 03:26:55;;;;;;;10.87;10.07;;;;;;;11.91;100.00;96934.75;4938294;28;20217;-65
2023/06/12 03:29:22;;;;;;;10.33;9.53;;;;;;;11.91;100.00;96948.84;4977690;28;20241;-66
2023/06/12 03:31:50;;;;;;;10.97;10.03;;;;;;;11.92;100.00;96936.38;4988195;28;20209;-66
2023/06/12 03:34:19;;;;;;;10.80;10.00;;;;;;;11.88;100.00;96942.09;4965866;28;20229;-65
2023/06/12 03:36:46;;;;;;;10.67;9.87;;;;;;;11.93;100.00;96941.50;4959012;28;20233;-66
2023/06/12 03:39:14;;;;;;;11.33;10.37;;;;;;;11.94;100.00;96948.47;4958788;28;20236;-66
2023/06/12 03:41:52;;;;;;;10.77;9.97;;;;;;;11.82;100.00;96934.94;4944235;28;20300;-65
2023/06/12 03:44:19;;;;;;;10.03;9.33;;;;;;;11.98;100.00;96938.28;4981038;28;20775;-65
2023/06/12 03:46:47;;;;;;;11.33;10.53;;;;;;;11.99;100.00;96939.91;4991303;28;20209;-65
2023/06/12 03:49:15;;;;;;;11.23;10.33;;;;;;;11.99;100.00;96948.69;4970206;28;23035;-65
2023/06/12 03:51:44;;;;;;;10.67;9.90;;;;;;;11.86;100.00;96935.38;4951311;28;20240;-65
2023/06/12 03:54:11;;;;;;;11.13;10.30;;;;;;;11.97;100.00;96948.06;4981524;28;20315;-65
2023/06/12 03:56:41;;;;;;;11.33;10.33;;;;;;;12.02;100.00;96945.66;4985670;28;20229;-68
2023/06/12 03:59:09;;;;;;;10.73;9.93;;;;;;;12.00;100.00;96953.00;4907253;28;20212;-66
2023/06/12 04:01:38;;;;;;;10.67;9.97;;;;;;;12.07;100.00;96958.34;4982274;28;20259;-69
2023/06/12 04:04:06;;;;;;;11.00;10.20;;;;;;;12.10;100.00;96957.13;4983413;28;20241;-66
2023/06/12 04:06:40;;;;;;;11.43;10.40;;;;;;;12.24;100.00;96961.47;4944646;28;20709;-67
2023/06/12 04:09:12;;;;;;;10.73;9.83;;;;;;;12.27;100.00;96954.91;4984794;28;20247;-67
2023/06/12 04:11:40;;;;;;;11.10;10.17;;;;;;;12.32;100.00;96952.50;4970086;28;20488;-68
2023/06/12 04:14:08;;;;;;;10.80;9.83;;;;;;;12.35;100.00;96957.41;4935818;28;20253;-68
2023/06/12 04:16:35;;;;;;;10.13;9.33;;;;;;;12.42;100.00;96962.72;4981095;28;20322;-66
2023/06/12 04:19:03;;;;;;;11.03;10.13;;;;;;;12.51;100.00;96958.88;4987874;28;20201;-66
2023/06/12 04:21:32;;;;;;;11.30;10.30;;;;;;;12.62;100.00;96960.09;4966633;28;20385;-67
2023/06/12 04:24:01;;;;;;;10.13;9.27;;;;;;;12.68;100.00;96961.94;4954681;28;20205;-66
2023/06/12 04:26:31;;;;;;;10.40;9.67;;;;;;;12.80;100.00;96956.84;4987223;28;20342;-64
2023/06/12 04:29:02;;;;;;;10.20;9.40;;;;;;;12.91;100.00;96962.59;4938874;28;20609;-64
2023/06/12 04:31:30;;;;;;;11.27;10.47;;;;;;;12.98;100.00;96966.06;4983167;28;20497;-66
2023/06/12 04:34:00;;;;;;;10.47;9.67;;;;;;;13.09;100.00;96965.44;4986246;28;20220;-67
2023/06/12 04:36:27;;;;;;;9.30;8.67;;;;;;;13.10;100.00;96945.81;4968064;28;20316;-70
2023/06/12 04:38:56;;;;;;;10.10;9.40;;;;;;;13.36;100.00;96949.47;4953110;28;20221;-64
2023/06/12 04:41:27;;;;;;;10.23;9.43;;;;;;;13.50;100.00;96960.09;4984528;28;20244;-66
2023/06/12 04:43:58;;;;;;;9.40;8.63;;;;;;;13.59;100.00;96951.69;4936889;28;20221;-68
2023/06/12 04:46:27;;;;;;;8.33;7.73;;;;;;;13.86;100.00;96954.28;4984559;28;20317;-63
2023/06/12 04:48:55;;;;;;;8.47;7.83;;;;;;;13.87;100.00;96947.09;4988251;28;20236;-66
2023/06/12 04:51:24;;;;;;;8.90;8.20;;;;;;;14.06;100.00;96944.56;4962747;28;20664;-66
2023/06/12 04:53:53;;;;;;;8.77;8.10;;;;;;;14.14;100.00;96947.78;4953095;28;20213;-66
2023/06/12 04:56:21;;;;;;;8.33;7.83;;;;;;;14.30;100.00;96949.13;4985892;28;20302;-66
2023/06/12 04:58:49;;;;;;;9.43;8.73;;;;;;;14.40;100.00;96948.69;4936027;28;21028;-68
2023/06/12 05:01:21;;;;;;;8.17;7.57;;;;;;;14.53;100.00;96945.13;4985376;28;20200;-70
2023/06/12 05:03:50;;;;;;;8.77;8.17;;;;;;;14.65;100.00;96949.75;4982815;28;20940;-67
2023/06/12 05:06:17;;;;;;;9.37;8.57;;;;;;;14.54;100.00;96940.59;4976480;28;20225;-68
2023/06/12 05:08:45;;;;;;;9.80;9.00;;;;;;;14.84;100.00;96951.50;4950818;28;20216;-68
2023/06/12 05:11:13;;;;;;;9.73;8.97;;;;;;;15.01;100.00;96954.44;4990806;28;20237;-69
2023/06/12 05:13:41;;;;;;;9.70;9.00;;;;;;;15.07;100.00;96934.06;4952466;28;20636;-67
2023/06/12 05:16:09;;;;;;;9.03;8.07;;;;;;;15.34;100.00;96957.84;4971365;28;20287;-66
2023/06/12 05:18:38;;;;;;;9.63;8.57;;;;;;;15.41;100.00;96957.78;4978517;28;20704;-68
2023/06/12 05:21:06;;;;;;;8.67;8.00;;;;;;;15.39;100.00;96960.66;4981428;28;20392;-66
2023/06/12 05:23:34;;;;;;;8.73;7.90;;;;;;;15.39;100.00;96941.19;4953540;28;20246;-67
2023/06/12 05:26:02;;;;;;;9.20;8.40;;;;;;;15.49;100.00;96960.97;4967712;28;20232;-68
2023/06/12 05:28:33;;;;;;;9.07;8.37;;;;;;;15.42;100.00;96946.06;4978610;28;20277;-66
2023/06/12 05:31:05;;;;;;;9.93;9.03;;;;;;;15.56;100.00;96962.78;4972283;28;20763;-67
2023/06/12 05:33:33;;;;;;;8.70;8.03;;;;;;;15.89;100.00;96964.28;4988872;28;20557;-67
2023/06/12 05:36:02;;;;;;;8.63;7.87;;;;;;;16.02;100.00;96972.16;4969512;28;20840;-68
2023/06/12 05:38:30;;;;;;;8.37;7.77;;;;;;;16.28;100.00;96972.03;4961929;28;20790;-66
2023/06/12 05:40:58;;;;;;;7.60;6.83;;;;;;;16.43;100.00;96956.41;4957530;28;20213;-66
2023/06/12 05:43:26;;;;;;;7.47;6.90;;;;;;;16.61;100.00;96960.88;4986298;28;20213;-66
2023/06/12 05:45:54;;;;;;;8.63;7.83;;;;;;;16.60;100.00;96963.78;4936690;28;20253;-65
2023/06/12 05:48:22;;;;;;;7.80;7.20;;;;;;;16.67;100.00;96969.84;4987814;28;20791;-66
2023/06/12 05:50:49;;;;;;;7.40;6.80;;;;;;;16.70;100.00;96969.38;4966331;28;20945;-66
2023/06/12 05:53:18;;;;;;;7.60;6.90;;;;;;;16.78;100.00;96963.72;4971005;28;20208;-66
2023/06/12 05:55:46;;;;;;;7.90;7.30;;;;;;;16.87;100.00;96963.41;4948808;28;20411;-70
2023/06/12 05:58:13;;;;;;;7.83;7.27;;;;;;;17.12;100.00;96963.22;4981662;28;20240;-69
2023/06/12 06:00:42;;;;;;;8.03;7.33;;;;;;;17.24;100.00;96963.25;4936172;28;20228;-66
2023/06/12 06:03:10;;;;;;;8.17;7.20;;;;;;;17.25;100.00;96972.06;4990794;28;20224;-67
2023/06/12 06:05:37;;;;;;;7.80;7.10;;;;;;;17.30;100.00;96966.81;4987399;28;20924;-67
2023/06/12 06:08:06;;;;;;;8.20;7.60;;;;;;;17.35;100.00;96964.25;4966445;28;20240;-66
2023/06/12 06:10:35;;;;;;;7.93;7.23;;;;;;;17.34;100.00;96963.47;4936856;28;20466;-66
2023/06/12 06:13:02;;;;;;;7.80;7.20;;;;;;;17.48;100.00;96966.72;4984730;28;20427;-67
2023/06/12 06:15:30;;;;;;;8.27;7.57;;;;;;;17.54;100.00;96964.97;4920182;28;20237;-65
2023/06/12 06:17:58;;;;;;;7.00;6.40;;;;;;;17.54;100.00;96961.47;4988275;28;20213;-64
2023/06/12 06:20:26;;;;;;;8.23;7.57;;;;;;;17.58;100.00;96974.16;4989583;28;20215;-66
2023/06/12 06:22:54;;;;;;;7.43;6.83;;;;;;;17.76;100.00;96975.09;4954881;28;20300;-68
2023/06/12 06:25:22;;;;;;;7.53;6.93;;;;;;;17.87;100.00;96974.22;4936000;28;20229;-69
2023/06/12 06:27:51;;;;;;;7.87;7.13;;;;;;;17.92;100.00;96981.56;4985551;28;20291;-66
2023/06/12 06:30:19;;;;;;;8.20;7.50;;;;;;;18.02;100.00;96986.38;4950769;28;21963;-67
2023/06/12 06:32:47;;;;;;;8.83;7.47;;;;;;;18.08;100.00;96985.41;4987850;28;20255;-66
2023/06/12 06:35:15;;;;;;;9.07;8.37;;;;;;;18.08;100.00;96993.47;4988244;28;22086;-67
2023/06/12 06:37:42;;;;;;;8.03;7.43;;;;;;;18.28;100.00;96989.53;4967461;28;20205;-68
2023/06/12 06:40:10;;;;;;;6.97;6.37;;;;;;;18.35;100.00;96974.13;4975494;28;20328;-66
2023/06/12 06:42:38;;;;;;;6.90;6.40;;;;;;;18.62;100.00;96993.16;4953421;28;20217;-68
2023/06/12 06:45:08;;;;;;;7.43;6.73;;;;;;;18.58;100.00;96994.69;4966438;28;20228;-68
2023/06/12 06:47:37;;;;;;;7.83;7.23;;;;;;;18.71;98.52;96996.25;4975009;28;20212;-67
2023/06/12 06:50:05;;;;;;;7.40;6.77;;;;;;;18.84;97.84;97000.50;4988667;28;20197;-67
2023/06/12 06:52:33;;;;;;;7.23;6.57;;;;;;;18.84;97.90;96994.34;4955464;28;20252;-66
2023/06/12 06:55:00;;;;;;;7.47;6.63;;;;;;;18.99;97.44;96991.94;4965617;28;20822;-67
2023/06/12 06:57:28;;;;;;;7.53;6.93;;;;;;;19.31;98.10;96995.91;4937941;28;20233;-66
2023/06/12 06:59:56;;;;;;;6.67;6.17;;;;;;;19.42;95.61;96994.19;4967720;28;20212;-66
2023/06/12 07:02:25;;;;;;;6.43;6.03;;;;;;;19.44;96.42;96990.22;4948760;28;21256;-65
2023/06/12 07:04:53;;;;;;;7.03;6.50;;;;;;;19.53;89.34;96998.69;4989679;28;20736;-64
2023/06/12 07:07:21;;;;;;;7.17;6.67;;;;;;;19.47;85.95;96987.03;4989723;28;20197;-65
2023/06/12 07:09:48;;;;;;;7.93;7.00;;;;;;;19.52;88.70;96986.31;4964466;28;20248;-66
2023/06/12 07:12:16;;;;;;;6.63;6.03;;;;;;;19.40;87.04;96985.56;4966092;28;20237;-64
2023/06/12 07:14:43;;;;;;;8.30;7.63;;;;;;;19.40;88.07;96994.47;4956818;28;20276;-66
2023/06/12 07:17:11;;;;;;;6.63;5.83;;;;;;;19.42;89.73;96988.81;4938574;28;20953;-65
2023/06/12 07:19:40;;;;;;;7.07;6.57;;;;;;;19.58;89.15;96988.00;4987302;28;20278;-65
2023/06/12 07:22:08;;;;;;;7.43;6.73;;;;;;;19.72;85.78;96999.22;4986122;28;20213;-66
2023/06/12 07:24:35;;;;;;;7.00;6.50;;;;;;;19.62;82.01;96997.19;4964312;28;20303;-65
2023/06/12 07:27:03;;;;;;;6.70;6.20;;;;;;;19.74;82.01;96993.59;4965456;28;20308;-65
2023/06/12 07:29:32;;;;;;;6.33;5.70;;;;;;;19.81;80.25;96988.84;4964859;28;20269;-65
2023/06/12 07:32:00;;;;;;;7.17;5.73;;;;;;;19.93;82.17;96992.28;4963764;28;20212;-65
2023/06/12 07:34:27;;;;;;;7.10;6.50;;;;;;;19.99;78.67;96986.97;4949426;28;20309;-65
2023/06/12 07:36:58;;;;;;;6.10;5.80;;;;;;;20.20;79.63;96990.72;4981791;28;20295;-66
2023/06/12 07:39:26;;;;;;;6.17;5.77;;;;;;;20.30;77.02;96988.13;4960287;28;20339;-65
2023/06/12 07:41:53;;;;;;;6.30;5.90;;;;;;;20.34;74.06;96986.56;4954262;28;20236;-65
2023/06/12 07:44:21;;;;;;;6.20;5.80;;;;;;;20.42;73.57;96981.78;4955191;28;20209;-64
2023/06/12 07:46:49;;;;;;;7.83;6.30;;;;;;;20.52;74.03;96982.72;4967933;28;20305;-66
2023/06/12 07:49:16;;;;;;;5.97;5.47;;;;;;;20.60;68.58;96983.31;4957183;28;20291;-64
2023/06/12 07:51:46;;;;;;;6.33;5.90;;;;;;;20.70;72.91;96980.75;4983665;28;20279;-67
2023/06/12 07:54:21;;;;;;;6.70;6.10;;;;;;;20.68;71.23;96988.28;4958137;28;20209;-65
2023/06/12 07:56:50;;;;;;;6.30;5.90;;;;;;;20.63;70.64;96980.94;4962496;28;20311;-65
2023/06/12 07:59:18;;;;;;;7.27;5.97;;;;;;;20.64;71.92;96968.28;4945242;28;20225;-65
2023/06/12 08:01:46;;;;;;;6.17;5.77;;;;;;;20.85;70.08;96977.44;4970595;28;20850;-66
2023/06/12 08:04:14;;;;;;;5.90;5.40;;;;;;;20.78;67.01;96971.38;4963447;28;20205;-66
2023/06/12 08:06:42;;;;;;;5.73;5.33;;;;;;;20.91;67.18;96979.09;4984910;28;20255;-66
2023/06/12 08:09:10;;;;;;;5.93;5.43;;;;;;;21.05;58.83;96970.56;4981984;28;20217;-65
2023/06/12 08:11:39;;;;;;;5.23;4.77;;;;;;;21.16;60.93;96977.66;4948743;28;20241;-65
2023/06/12 08:14:06;;;;;;;6.00;5.50;;;;;;;21.16;57.89;96977.66;4935165;28;20213;-64
2023/06/12 08:16:34;;;;;;;5.63;5.23;;;;;;;20.77;59.56;96973.28;4989558;28;20221;-64
2023/06/12 08:19:02;;;;;;;5.33;5.03;;;;;;;20.98;60.42;96981.56;4936063;28;20218;-65
2023/06/12 08:21:30;;;;;;;5.83;5.43;;;;;;;21.31;63.08;96974.28;4990129;28;20239;-65
2023/06/12 08:23:57;;;;;;;6.57;6.07;;;;;;;21.42;58.83;96974.38;4985021;28;20272;-64
2023/06/12 08:26:25;;;;;;;8.77;8.17;;;;;;;21.58;61.43;96975.25;4966820;28;20229;-66
2023/06/12 08:28:54;;;;;;;5.87;5.47;;;;;;;21.82;59.16;96976.50;4948123;28;20213;-65
2023/06/12 08:31:23;;;;;;;6.23;5.60;;;;;;;21.76;57.61;96991.03;4962839;28;20212;-64
2023/06/12 08:33:51;;;;;;;6.60;5.63;;;;;;;21.44;59.30;96980.31;4967048;28;20216;-65
2023/06/12 08:36:19;;;;;;;5.67;5.27;;;;;;;21.69;56.59;96982.38;4965774;28;20229;-64
2023/06/12 08:38:47;;;;;;;6.17;5.77;;;;;;;21.81;55.48;96988.38;4980771;28;20743;-65
2023/06/12 08:41:18;;;;;;;5.67;5.30;;;;;;;21.85;55.62;96980.56;4989098;28;20228;-64
2023/06/12 08:43:46;;;;;;;5.73;5.23;;;;;;;21.53;56.65;96968.75;4949167;28;20208;-65
2023/06/12 08:46:17;;;;;;;6.37;5.87;;;;;;;21.16;58.37;96971.47;4949591;28;20429;-64
2023/06/12 08:48:46;;;;;;;5.67;5.27;;;;;;;21.44;61.82;96983.00;4984166;28;20205;-65
2023/06/12 08:51:15;;;;;;;6.07;5.37;;;;;;;21.84;56.82;96981.66;4952872;28;20300;-65
2023/06/12 08:53:43;;;;;;;5.80;5.30;;;;;;;21.76;53.16;96974.84;4984121;28;20194;-66
2023/06/12 08:56:12;;;;;;;5.27;4.97;;;;;;;21.62;52.45;96968.28;4985202;28;20274;-66
2023/06/12 08:58:39;;;;;;;4.50;4.20;;;;;;;21.60;51.84;96971.22;4956363;28;20213;-66
2023/06/12 09:01:08;;;;;;;5.03;4.60;;;;;;;21.54;51.04;96956.09;4936535;28;20265;-65
2023/06/12 09:03:38;;;;;;;5.07;4.77;;;;;;;21.94;50.00;96964.69;4993147;28;20204;-66
2023/06/12 09:06:09;;;;;;;6.60;4.83;;;;;;;21.81;49.64;96974.09;4933457;28;20243;-64
2023/06/12 09:08:38;;;;;;;5.30;4.90;;;;;;;21.69;49.92;96974.28;4989662;28;20241;-66
2023/06/12 09:11:06;;;;;;;5.63;5.13;;;;;;;21.77;49.96;96960.31;4983639;28;20996;-64
2023/06/12 09:13:40;;;;;;;5.20;4.80;;;;;;;21.79;48.23;96970.84;4965226;28;20229;-64
2023/06/12 09:16:11;;;;;;;8.93;5.33;;;;;;;21.84;49.12;96968.16;4934229;28;20242;-66
2023/06/12 09:18:49;;;;;;;4.70;4.30;;;;;;;21.71;49.43;96957.84;4989467;28;20858;-67
2023/06/12 09:21:19;;;;;;;4.20;3.90;;;;;;;21.88;48.73;96965.75;4963075;28;20216;-64
2023/06/12 09:23:50;;;;;;;4.73;4.20;;;;;;;21.78;49.46;96972.72;4955041;28;20233;-65
2023/06/12 09:26:21;;;;;;;4.80;4.40;;;;;;;21.86;50.61;96973.28;4957668;28;20243;-65
2023/06/12 09:28:53;;;;;;;6.07;5.47;;;;;;;21.81;48.33;96968.69;4983573;28;20189;-65
2023/06/12 09:31:22;;;;;;;5.80;4.23;;;;;;;21.98;48.11;96969.31;4915242;28;20296;-65
2023/06/12 09:33:53;;;;;;;4.27;3.97;;;;;;;22.10;46.97;96982.56;4976223;28;20213;-64
2023/06/12 09:36:21;;;;;;;5.30;4.70;;;;;;;22.07;47.35;96980.41;4964052;28;20235;-66
2023/06/12 09:38:50;;;;;;;4.50;4.10;;;;;;;22.13;48.78;96973.13;4930918;28;20330;-64
2023/06/12 09:41:21;;;;;;;4.70;4.30;;;;;;;22.02;48.05;96977.69;4986477;28;20268;-64
2023/06/12 09:43:52;;;;;;;4.97;4.67;;;;;;;22.07;47.77;96968.78;4980321;28;21177;-64
2023/06/12 09:46:25;;;;;;;5.93;4.90;;;;;;;22.23;49.68;96964.25;4931917;28;20328;-64
2023/06/12 09:48:57;;;;;;;5.60;4.40;;;;;;;22.21;50.04;96958.31;4956378;28;20308;-64
2023/06/12 09:51:25;;;;;;;4.67;4.27;;;;;;;22.15;45.62;96962.88;4968487;28;20209;-64
2023/06/12 09:53:55;;;;;;;4.83;4.53;;;;;;;22.20;44.55;96965.63;4936811;28;20793;-65
2023/06/12 09:56:23;;;;;;;4.40;4.00;;;;;;;22.31;44.17;96958.34;4989090;28;20235;-65
2023/06/12 09:58:51;;;;;;;4.60;4.00;;;;;;;22.19;45.16;96963.16;4980067;28;20292;-66
2023/06/12 10:01:21;;;;;;;4.37;3.97;;;;;;;22.20;45.90;96957.53;4936975;28;20824;-65
2023/06/12 10:03:52;;;;;;;4.37;4.07;;;;;;;22.29;44.86;96954.31;4966152;28;20294;-67
2023/06/12 10:06:23;;;;;;;4.60;4.40;;;;;;;22.39;45.22;96944.34;4989105;28;21040;-65
2023/06/12 10:08:53;;;;;;;4.80;4.50;;;;;;;22.35;45.82;96945.13;4938096;28;20619;-64
2023/06/12 10:11:21;;;;;;;4.90;4.10;;;;;;;22.34;44.85;96933.53;4986505;28;20321;-65
2023/06/12 10:13:50;;;;;;;5.13;4.37;;;;;;;22.58;47.80;96937.66;4963396;28;20298;-66
2023/06/12 10:16:18;;;;;;;4.60;4.30;;;;;;;22.77;45.42;96944.16;4935728;28;20228;-64
2023/06/12 10:18:46;;;;;;;3.80;3.60;;;;;;;22.84;44.38;96944.69;4950004;28;20228;-65
2023/06/12 10:21:14;;;;;;;3.90;3.70;;;;;;;22.88;42.35;96949.56;4979822;28;20266;-64
2023/06/12 10:23:43;;;;;;;4.87;4.57;;;;;;;22.75;43.69;96943.63;4961252;28;20228;-64
2023/06/12 10:26:11;;;;;;;4.00;3.70;;;;;;;22.82;43.92;96938.75;4971451;28;20233;-64
2023/06/12 10:28:39;;;;;;;4.10;3.80;;;;;;;22.64;44.52;96934.69;4981568;28;20203;-68
2023/06/12 10:31:14;;;;;;;4.70;3.90;;;;;;;22.71;44.94;96942.53;4954323;28;20343;-65
2023/06/12 10:33:58;;;;;;;4.17;3.80;;;;;;;22.88;44.26;96933.34;4968343;28;20579;-67
2023/06/12 10:36:26;;;;;;;4.17;3.80;;;;;;;22.97;42.85;96934.44;4958745;28;20942;-65
2023/06/12 10:39:03;;;;;;;4.47;4.17;;;;;;;23.03;43.50;96932.53;4950395;28;20229;-66
2023/06/12 10:41:32;;;;;;;3.87;3.67;;;;;;;22.88;42.20;96927.94;4991641;28;20713;-64
2023/06/12 10:44:00;;;;;;;3.90;3.70;;;;;;;23.06;44.72;96935.53;4983216;28;20209;-65
2023/06/12 10:46:44;;;;;;;4.57;4.37;;;;;;;23.42;44.29;96926.56;4955150;28;20236;-64
2023/06/12 10:49:13;;;;;;;4.57;4.23;;;;;;;23.40;43.67;96915.22;4978376;28;20225;-66
2023/06/12 10:51:48;;;;;;;4.50;4.10;;;;;;;23.35;42.06;96915.25;4963529;28;20213;-66
2023/06/12 10:54:25;;;;;;;4.03;3.63;;;;;;;23.21;41.15;96910.38;4987174;28;21406;-65
2023/06/12 10:57:03;;;;;;;4.77;4.00;;;;;;;23.53;43.32;96913.84;4951280;28;20245;-65
2023/06/12 10:59:33;;;;;;;5.10;4.80;;;;;;;23.75;42.16;96908.09;4985389;28;20224;-64
2023/06/12 11:02:01;;;;;;;4.70;4.40;;;;;;;23.48;41.60;96920.06;4950917;28;20310;-65
2023/06/12 11:04:36;;;;;;;4.60;4.20;;;;;;;23.33;42.83;96918.22;4992244;28;20257;-63
2023/06/12 11:07:05;;;;;;;4.50;4.20;;;;;;;23.27;41.59;96903.91;4952985;28;20200;-62
2023/06/12 11:09:40;;;;;;;4.23;4.00;;;;;;;23.27;43.74;96890.41;4987503;28;20282;-64
2023/06/12 11:12:08;;;;;;;5.03;4.67;;;;;;;23.34;42.67;96900.94;4957264;28;20220;-65
2023/06/12 11:14:36;;;;;;;7.50;4.27;;;;;;;23.46;41.19;96891.69;4984320;28;20761;-67
2023/06/12 11:17:04;;;;;;;4.60;4.20;;;;;;;23.47;42.24;96893.31;4955436;28;20926;-64
2023/06/12 11:19:32;;;;;;;4.73;4.33;;;;;;;23.04;41.44;96897.16;4991675;28;20229;-65
2023/06/12 11:22:03;;;;;;;4.40;4.10;;;;;;;23.47;43.41;96887.91;4955578;28;20920;-64
2023/06/12 11:24:31;;;;;;;4.80;4.00;;;;;;;23.36;40.79;96887.94;4985054;28;20233;-67
2023/06/12 11:27:01;;;;;;;4.00;3.70;;;;;;;23.55;40.96;96890.03;4952182;28;20213;-65
2023/06/12 11:29:36;;;;;;;4.20;4.00;;;;;;;23.75;42.45;96877.53;4985585;28;20359;-63
2023/06/12 11:32:19;;;;;;;3.90;3.60;;;;;;;23.97;40.67;96883.38;4955489;28;20214;-62
2023/06/12 11:34:47;;;;;;;4.57;4.10;;;;;;;24.11;40.03;96872.78;4961160;28;20224;-62